createdAt,value
2022-10-06T00:01:16.275Z,100.00
2022-10-06T00:03:46.080Z,100.00
2022-10-06T00:06:18.065Z,100.00
2022-10-06T00:08:48.466Z,100.00
2022-10-06T00:11:20.262Z,100.00
2022-10-06T00:13:48.450Z,100.00
2022-10-06T00:16:22.468Z,100.00
2022-10-06T00:18:50.442Z,100.00
2022-10-06T00:21:17.836Z,100.00
2022-10-06T00:23:45.595Z,100.00
2022-10-06T00:26:17.010Z,100.00
2022-10-06T00:28:48.073Z,100.00
2022-10-06T00:31:19.408Z,100.00
2022-10-06T00:33:47.475Z,100.00
2022-10-06T00:36:14.692Z,100.00
2022-10-06T00:38:42.027Z,100.00
2022-10-06T00:41:18.345Z,100.00
2022-10-06T00:43:56.960Z,100.00
2022-10-06T00:46:45.175Z,100.00
2022-10-06T00:49:30.656Z,100.00
2022-10-06T00:52:11.900Z,100.00
2022-10-06T00:54:40.985Z,100.00
2022-10-06T00:57:09.746Z,100.00
2022-10-06T00:59:40.118Z,100.00
2022-10-06T01:02:25.085Z,100.00
2022-10-06T01:05:00.751Z,100.00
2022-10-06T01:07:30.623Z,100.00
2022-10-06T01:09:59.262Z,100.00
2022-10-06T01:12:30.741Z,100.00
2022-10-06T01:14:58.122Z,100.00
2022-10-06T01:17:45.751Z,100.00
2022-10-06T01:20:19.233Z,100.00
2022-10-06T01:23:10.096Z,100.00
2022-10-06T01:25:38.201Z,100.00
2022-10-06T01:28:09.918Z,100.00
2022-10-06T01:30:52.902Z,100.00
2022-10-06T01:33:23.874Z,100.00
2022-10-06T01:35:53.544Z,100.00
2022-10-06T01:38:21.978Z,100.00
2022-10-06T01:40:54.285Z,100.00
2022-10-06T01:43:21.868Z,100.00
2022-10-06T01:45:57.557Z,100.00
2022-10-06T01:48:27.043Z,100.00
2022-10-06T01:50:56.809Z,100.00
2022-10-06T01:53:24.120Z,100.00
2022-10-06T01:55:51.456Z,100.00
2022-10-06T01:58:24.299Z,100.00
2022-10-06T02:00:51.982Z,100.00
2022-10-06T02:03:19.187Z,100.00
2022-10-06T02:05:46.440Z,100.00
2022-10-06T02:08:14.195Z,100.00
2022-10-06T02:10:42.891Z,100.00
2022-10-06T02:13:17.519Z,100.00
2022-10-06T02:15:45.254Z,100.00
2022-10-06T02:18:12.542Z,100.00
2022-10-06T02:20:40.389Z,100.00
2022-10-06T02:23:07.596Z,100.00
2022-10-06T02:25:35.230Z,100.00
2022-10-06T02:28:02.712Z,100.00
2022-10-06T02:30:30.395Z,100.00
2022-10-06T02:32:57.741Z,100.00
2022-10-06T02:35:25.083Z,100.00
2022-10-06T02:37:52.428Z,100.00
2022-10-06T02:40:20.546Z,100.00
2022-10-06T02:42:50.439Z,100.00
2022-10-06T02:45:21.020Z,100.00
2022-10-06T02:47:48.421Z,100.00
2022-10-06T02:50:15.667Z,100.00
2022-10-06T02:52:42.949Z,100.00
2022-10-06T02:55:11.941Z,100.00
2022-10-06T02:57:39.752Z,100.00
2022-10-06T03:00:10.333Z,100.00
2022-10-06T03:02:37.713Z,100.00
2022-10-06T03:05:05.844Z,100.00
2022-10-06T03:07:34.166Z,100.00
2022-10-06T03:10:01.508Z,100.00
2022-10-06T03:12:28.910Z,100.00
2022-10-06T03:14:56.398Z,100.00
2022-10-06T03:17:23.684Z,100.00
2022-10-06T03:19:57.008Z,100.00
2022-10-06T03:22:25.071Z,100.00
2022-10-06T03:24:55.149Z,100.00
2022-10-06T03:27:22.729Z,100.00
2022-10-06T03:29:52.534Z,100.00
2022-10-06T03:32:23.666Z,100.00
2022-10-06T03:34:53.235Z,100.00
2022-10-06T03:37:20.844Z,100.00
2022-10-06T03:39:48.314Z,100.00
2022-10-06T03:42:16.039Z,100.00
2022-10-06T03:44:45.959Z,100.00
2022-10-06T03:47:16.942Z,100.00
2022-10-06T03:49:45.468Z,100.00
2022-10-06T03:52:14.425Z,100.00
2022-10-06T03:54:41.675Z,100.00
2022-10-06T03:57:09.408Z,100.00
2022-10-06T03:59:37.241Z,100.00
2022-10-06T04:02:06.055Z,100.00
2022-10-06T04:04:57.570Z,100.00
2022-10-06T04:07:24.960Z,100.00
2022-10-06T04:09:52.830Z,100.00
2022-10-06T04:12:20.092Z,100.00
2022-10-06T04:14:47.323Z,100.00
2022-10-06T04:17:14.589Z,100.00
2022-10-06T04:19:42.080Z,100.00
2022-10-06T04:22:10.638Z,100.00
2022-10-06T04:24:37.955Z,100.00
2022-10-06T04:27:23.912Z,100.00
2022-10-06T04:29:57.902Z,100.00
2022-10-06T04:32:25.360Z,100.00
2022-10-06T04:34:52.790Z,100.00
2022-10-06T04:37:20.174Z,100.00
2022-10-06T04:39:49.771Z,100.00
2022-10-06T04:42:20.857Z,100.00
2022-10-06T04:44:48.107Z,100.00
2022-10-06T04:47:15.549Z,100.00
2022-10-06T04:49:42.767Z,100.00
2022-10-06T04:52:10.473Z,100.00
2022-10-06T04:54:39.464Z,100.00
2022-10-06T04:57:08.704Z,100.00
2022-10-06T04:59:55.215Z,100.00
2022-10-06T05:02:23.378Z,100.00
2022-10-06T05:04:54.038Z,100.00
2022-10-06T05:07:23.484Z,100.00
2022-10-06T05:09:50.724Z,100.00
2022-10-06T05:12:18.486Z,100.00
2022-10-06T05:14:47.001Z,100.00
2022-10-06T05:17:15.693Z,100.00
2022-10-06T05:19:44.771Z,100.00
2022-10-06T05:22:12.569Z,100.00
2022-10-06T05:24:40.176Z,100.00
2022-10-06T05:27:07.392Z,100.00
2022-10-06T05:29:35.980Z,100.00
2022-10-06T05:32:05.404Z,100.00
2022-10-06T05:34:36.418Z,100.00
2022-10-06T05:37:03.960Z,100.00
2022-10-06T05:39:31.146Z,100.00
2022-10-06T05:41:59.181Z,100.00
2022-10-06T05:44:27.661Z,100.00
2022-10-06T05:46:56.661Z,100.00
2022-10-06T05:49:24.088Z,100.00
2022-10-06T05:51:56.130Z,100.00
2022-10-06T05:54:27.204Z,100.00
2022-10-06T05:56:54.601Z,100.00
2022-10-06T05:59:22.810Z,100.00
2022-10-06T06:01:52.196Z,100.00
2022-10-06T06:04:32.744Z,100.00
2022-10-06T06:07:01.021Z,100.00
2022-10-06T06:09:28.934Z,100.00
2022-10-06T06:12:00.923Z,100.00
2022-10-06T06:15:11.002Z,100.00
2022-10-06T06:17:43.126Z,100.00
2022-10-06T06:20:10.482Z,100.00
2022-10-06T06:22:37.941Z,100.00
2022-10-06T06:25:07.189Z,100.00
2022-10-06T06:27:35.678Z,100.00
2022-10-06T06:30:04.162Z,100.00
2022-10-06T06:32:31.865Z,100.00
2022-10-06T06:34:59.281Z,100.00
2022-10-06T06:37:27.586Z,100.00
2022-10-06T06:39:55.424Z,100.00
2022-10-06T06:42:22.651Z,100.00
2022-10-06T06:44:58.229Z,100.00
2022-10-06T06:47:31.073Z,100.00
2022-10-06T06:50:00.994Z,100.00
2022-10-06T06:52:31.115Z,100.00
2022-10-06T06:54:58.646Z,100.00
2022-10-06T06:57:26.345Z,100.00
2022-10-06T06:59:57.034Z,100.00
2022-10-06T07:02:26.566Z,100.00
2022-10-06T07:04:53.845Z,100.00
2022-10-06T07:07:21.164Z,100.00
2022-10-06T07:09:48.503Z,100.00
2022-10-06T07:12:17.868Z,100.00
2022-10-06T07:15:09.066Z,100.00
2022-10-06T07:17:58.995Z,100.00
2022-10-06T07:20:45.100Z,100.00
2022-10-06T07:23:38.854Z,100.00
2022-10-06T07:26:10.842Z,100.00
2022-10-06T07:28:38.203Z,100.00
2022-10-06T07:31:05.659Z,100.00
2022-10-06T07:33:33.729Z,100.00
2022-10-06T07:36:04.445Z,100.00
2022-10-06T07:38:33.162Z,100.00
2022-10-06T07:41:18.298Z,100.00
2022-10-06T07:43:53.797Z,100.00
2022-10-06T07:46:22.867Z,100.00
2022-10-06T07:49:19.348Z,100.00
2022-10-06T07:51:50.776Z,100.00
2022-10-06T07:54:26.547Z,100.00
2022-10-06T07:57:19.735Z,100.00
2022-10-06T07:59:47.159Z,100.00
2022-10-06T08:02:14.661Z,100.00
2022-10-06T08:04:41.968Z,100.00
2022-10-06T08:07:10.551Z,100.00
2022-10-06T08:09:37.859Z,100.00
2022-10-06T08:12:25.052Z,100.00
2022-10-06T08:14:52.581Z,100.00
2022-10-06T08:17:20.037Z,100.00
2022-10-06T08:19:47.993Z,100.00
2022-10-06T08:22:15.997Z,100.00
2022-10-06T08:25:04.730Z,100.00
2022-10-06T08:27:31.518Z,100.00
2022-10-06T08:29:58.789Z,100.00
2022-10-06T08:32:26.287Z,100.00
2022-10-06T08:34:54.396Z,100.00
2022-10-06T08:37:23.818Z,100.00
2022-10-06T08:39:51.826Z,100.00
2022-10-06T08:42:46.065Z,100.00
2022-10-06T08:45:26.533Z,100.00
2022-10-06T08:48:17.668Z,100.00
2022-10-06T08:51:19.687Z,100.00
2022-10-06T08:54:02.705Z,100.00
2022-10-06T08:57:05.329Z,100.00
2022-10-06T08:59:36.945Z,100.00
2022-10-06T09:02:41.970Z,100.00
2022-10-06T09:05:23.157Z,100.00
2022-10-06T09:08:29.165Z,100.00
2022-10-06T09:11:49.698Z,100.00
2022-10-06T09:14:37.564Z,100.00
2022-10-06T09:17:20.275Z,100.00
2022-10-06T09:20:20.501Z,100.00
2022-10-06T09:22:51.688Z,100.00
2022-10-06T09:25:26.711Z,100.00
2022-10-06T09:27:58.146Z,100.00
2022-10-06T09:30:26.827Z,100.00
2022-10-06T09:33:04.665Z,100.00
2022-10-06T09:35:33.143Z,100.00
2022-10-06T09:38:08.718Z,100.00
2022-10-06T09:40:59.266Z,100.00
2022-10-06T09:43:29.564Z,100.00
2022-10-06T09:46:41.772Z,100.00
2022-10-06T09:49:19.490Z,99.92
2022-10-06T09:52:15.221Z,98.78
2022-10-06T09:54:44.739Z,98.05
2022-10-06T09:57:27.045Z,96.43
2022-10-06T09:59:59.174Z,95.63
2022-10-06T10:02:37.545Z,92.64
2022-10-06T10:05:31.861Z,92.91
2022-10-06T10:08:29.922Z,91.72
2022-10-06T10:11:29.227Z,92.44
2022-10-06T10:13:58.863Z,91.17
2022-10-06T10:16:35.499Z,90.72
2022-10-06T10:19:05.807Z,91.31
2022-10-06T10:21:35.493Z,87.93
2022-10-06T10:24:23.406Z,87.56
2022-10-06T10:27:18.246Z,87.13
2022-10-06T10:30:15.351Z,86.60
2022-10-06T10:33:17.412Z,85.01
2022-10-06T10:35:52.704Z,85.08
2022-10-06T10:38:26.952Z,83.85
2022-10-06T10:41:09.876Z,83.19
2022-10-06T10:44:18.004Z,83.13
2022-10-06T10:46:55.536Z,82.23
2022-10-06T10:49:31.246Z,82.56
2022-10-06T10:52:24.104Z,83.20
2022-10-06T10:55:27.188Z,82.18
2022-10-06T10:58:19.235Z,79.44
2022-10-06T11:00:56.457Z,75.96
2022-10-06T11:03:23.816Z,74.39
2022-10-06T11:06:16.896Z,74.48
2022-10-06T11:09:10.551Z,74.87
2022-10-06T11:12:13.569Z,76.73
2022-10-06T11:15:21.467Z,77.74
2022-10-06T11:17:50.568Z,77.47
2022-10-06T11:20:44.145Z,78.81
2022-10-06T11:23:50.562Z,77.58
2022-10-06T11:26:51.064Z,76.57
2022-10-06T11:29:46.992Z,75.66
2022-10-06T11:32:44.712Z,75.41
2022-10-06T11:35:26.996Z,75.61
2022-10-06T11:38:30.198Z,73.95
2022-10-06T11:41:51.269Z,73.58
2022-10-06T11:44:37.195Z,72.27
2022-10-06T11:47:16.487Z,72.53
2022-10-06T11:49:56.106Z,73.81
2022-10-06T11:52:23.163Z,72.83
2022-10-06T11:55:20.294Z,73.05
2022-10-06T11:58:37.896Z,71.10
2022-10-06T12:01:02.429Z,70.90
2022-10-06T12:03:31.130Z,70.35
2022-10-06T12:05:58.437Z,69.46
2022-10-06T12:08:39.904Z,69.13
2022-10-06T12:11:43.823Z,68.31
2022-10-06T12:16:32.505Z,69.29
2022-10-06T12:18:01.952Z,68.71
2022-10-06T12:20:55.595Z,68.17
2022-10-06T12:24:24.082Z,66.13
2022-10-06T12:27:26.438Z,66.88
2022-10-06T12:30:30.723Z,66.78
2022-10-06T12:33:03.624Z,66.30
2022-10-06T12:35:40.202Z,66.40
2022-10-06T12:38:41.360Z,66.18
2022-10-06T12:41:14.622Z,65.46
2022-10-06T12:43:57.346Z,63.28
2022-10-06T12:46:43.599Z,61.86
2022-10-06T12:49:35.325Z,61.03
2022-10-06T12:52:55.472Z,58.29
2022-10-06T12:55:53.014Z,57.88
2022-10-06T12:58:33.358Z,58.18
2022-10-06T13:01:06.930Z,60.45
2022-10-06T13:03:36.958Z,61.78
2022-10-06T13:06:09.395Z,59.50
2022-10-06T13:08:39.515Z,58.61
2022-10-06T13:11:27.087Z,58.78
2022-10-06T13:14:09.808Z,57.91
2022-10-06T13:16:42.965Z,58.38
2022-10-06T13:19:28.310Z,55.60
2022-10-06T13:21:55.658Z,56.78
2022-10-06T13:24:27.307Z,57.67
2022-10-06T13:26:54.894Z,57.90
2022-10-06T13:29:26.120Z,58.84
2022-10-06T13:31:56.802Z,59.03
2022-10-06T13:34:35.947Z,59.15
2022-10-06T13:37:03.531Z,60.11
2022-10-06T13:39:31.915Z,59.54
2022-10-06T13:42:21.375Z,60.02
2022-10-06T13:45:02.828Z,57.33
2022-10-06T13:47:30.767Z,56.59
2022-10-06T13:50:19.764Z,57.21
2022-10-06T13:52:48.822Z,56.32
2022-10-06T13:55:26.935Z,55.46
2022-10-06T13:58:03.377Z,57.01
2022-10-06T14:00:57.409Z,55.40
2022-10-06T14:06:22.254Z,54.79
2022-10-06T14:08:57.970Z,54.01
2022-10-06T14:11:29.826Z,55.30
2022-10-06T14:14:07.403Z,55.57
2022-10-06T14:16:34.778Z,55.88
2022-10-06T14:19:06.715Z,55.57
2022-10-06T14:21:41.784Z,55.74
2022-10-06T14:24:28.293Z,55.41
2022-10-06T14:27:03.367Z,56.01
2022-10-06T14:29:31.683Z,52.75
2022-10-06T14:32:14.640Z,51.73
2022-10-06T14:34:42.530Z,51.65
2022-10-06T14:37:15.404Z,52.17
2022-10-06T14:39:45.428Z,50.41
2022-10-06T14:42:15.366Z,50.53
2022-10-06T14:44:43.261Z,51.40
2022-10-06T14:47:10.869Z,51.59
2022-10-06T14:49:38.193Z,50.74
2022-10-06T14:52:07.052Z,49.81
2022-10-06T14:54:34.741Z,48.85
2022-10-06T14:57:02.071Z,46.83
2022-10-06T14:59:29.277Z,47.31
2022-10-06T15:01:56.725Z,45.53
2022-10-06T15:04:27.934Z,45.14
2022-10-06T15:07:14.029Z,43.74
2022-10-06T15:09:42.717Z,42.83
2022-10-06T15:12:10.972Z,42.69
2022-10-06T15:14:39.821Z,41.07
2022-10-06T15:17:07.357Z,40.97
2022-10-06T15:19:34.582Z,40.54
2022-10-06T15:22:02.546Z,39.85
2022-10-06T15:24:29.733Z,39.48
2022-10-06T15:27:15.575Z,39.79
2022-10-06T15:29:42.809Z,39.80
2022-10-06T15:32:10.074Z,40.04
2022-10-06T15:34:37.842Z,39.89
2022-10-06T15:37:06.433Z,39.73
2022-10-06T15:39:37.746Z,40.13
2022-10-06T15:42:06.102Z,40.10
2022-10-06T15:44:36.953Z,40.78
2022-10-06T15:47:07.942Z,42.03
2022-10-06T15:49:40.320Z,42.06
2022-10-06T15:52:11.867Z,42.71
2022-10-06T15:54:41.062Z,43.26
2022-10-06T15:57:17.958Z,42.37
2022-10-06T15:59:47.802Z,42.97
2022-10-06T16:02:18.414Z,42.23
2022-10-06T16:05:04.590Z,43.21
2022-10-06T16:07:32.679Z,43.16
2022-10-06T16:10:00.267Z,43.34
2022-10-06T16:12:28.549Z,44.11
2022-10-06T16:14:55.759Z,45.26
2022-10-06T16:17:22.906Z,46.51
2022-10-06T16:19:50.245Z,47.54
2022-10-06T16:22:19.843Z,48.60
2022-10-06T16:24:47.026Z,49.57
2022-10-06T16:27:16.179Z,50.05
2022-10-06T16:29:46.072Z,50.87
2022-10-06T16:32:13.868Z,52.14
2022-10-06T16:34:41.074Z,52.53
2022-10-06T16:37:08.267Z,53.84
2022-10-06T16:39:35.458Z,54.82
2022-10-06T16:42:02.673Z,55.27
2022-10-06T16:44:29.777Z,55.51
2022-10-06T16:46:57.011Z,56.54
2022-10-06T16:49:24.570Z,56.95
2022-10-06T16:51:51.803Z,56.89
2022-10-06T16:54:19.121Z,57.68
2022-10-06T16:56:54.582Z,58.21
2022-10-06T16:59:26.486Z,58.63
2022-10-06T17:01:53.718Z,59.41
2022-10-06T17:04:24.624Z,59.86
2022-10-06T17:06:56.751Z,60.09
2022-10-06T17:09:29.823Z,60.79
2022-10-06T17:12:02.397Z,61.38
2022-10-06T17:14:33.262Z,61.73
2022-10-06T17:17:01.543Z,62.06
2022-10-06T17:19:30.638Z,62.98
2022-10-06T17:21:59.857Z,62.83
2022-10-06T17:24:29.610Z,63.28
2022-10-06T17:26:58.331Z,63.57
2022-10-06T17:29:26.346Z,64.53
2022-10-06T17:31:59.912Z,64.82
2022-10-06T17:34:32.291Z,65.33
2022-10-06T17:37:02.009Z,65.06
2022-10-06T17:39:29.262Z,65.25
2022-10-06T17:41:56.959Z,66.10
2022-10-06T17:44:26.945Z,65.88
2022-10-06T17:47:00.565Z,66.91
2022-10-06T17:49:32.631Z,66.50
2022-10-06T17:52:00.225Z,66.95
2022-10-06T17:54:28.533Z,67.25
2022-10-06T17:56:58.185Z,67.54
2022-10-06T17:59:31.585Z,68.11
2022-10-06T18:02:02.965Z,68.32
2022-10-06T18:04:30.783Z,69.26
2022-10-06T18:06:57.977Z,69.69
2022-10-06T18:09:26.059Z,69.67
2022-10-06T18:11:56.412Z,70.63
2022-10-06T18:14:33.328Z,69.93
2022-10-06T18:17:03.864Z,70.52
2022-10-06T18:19:36.165Z,71.35
2022-10-06T18:22:10.251Z,71.21
2022-10-06T18:24:40.130Z,71.64
2022-10-06T18:27:08.163Z,71.80
2022-10-06T18:29:38.940Z,71.79
2022-10-06T18:32:40.557Z,71.96
2022-10-06T18:37:43.014Z,71.52
2022-10-06T18:40:11.477Z,72.04
2022-10-06T18:42:39.423Z,73.03
2022-10-06T18:45:27.996Z,73.40
2022-10-06T18:48:14.047Z,72.78
2022-10-06T18:50:41.320Z,72.54
2022-10-06T18:53:08.632Z,73.17
2022-10-06T18:55:35.847Z,73.41
2022-10-06T18:58:04.558Z,73.33
2022-10-06T19:00:32.254Z,73.74
2022-10-06T19:02:59.437Z,74.62
2022-10-06T19:05:26.860Z,75.25
2022-10-06T19:07:54.512Z,74.89
2022-10-06T19:10:21.994Z,74.62
2022-10-06T19:12:49.655Z,74.71
2022-10-06T19:15:20.814Z,74.45
2022-10-06T19:17:50.175Z,75.35
2022-10-06T19:20:18.490Z,76.07
2022-10-06T19:22:47.454Z,76.20
2022-10-06T19:25:18.554Z,76.60
2022-10-06T19:27:48.871Z,76.54
2022-10-06T19:30:16.081Z,77.35
2022-10-06T19:32:43.433Z,76.55
2022-10-06T19:35:11.027Z,76.81
2022-10-06T19:37:39.057Z,78.21
2022-10-06T19:40:08.700Z,77.54
2022-10-06T19:42:48.389Z,78.63
2022-10-06T19:45:17.566Z,78.45
2022-10-06T19:47:46.177Z,77.87
2022-10-06T19:50:17.051Z,78.49
2022-10-06T19:52:45.198Z,78.81
2022-10-06T19:55:12.646Z,79.29
2022-10-06T19:57:40.017Z,79.37
2022-10-06T20:00:10.072Z,79.44
2022-10-06T20:02:43.132Z,79.19
2022-10-06T20:05:14.749Z,78.99
2022-10-06T20:07:45.560Z,79.98
2022-10-06T20:10:13.419Z,80.47
2022-10-06T20:12:44.030Z,79.92
2022-10-06T20:15:12.843Z,80.63
2022-10-06T20:17:42.340Z,80.22
2022-10-06T20:20:10.384Z,81.52
2022-10-06T20:22:37.558Z,81.95
2022-10-06T20:25:07.171Z,82.37
2022-10-06T20:27:35.959Z,81.82
2022-10-06T20:30:03.907Z,81.94
2022-10-06T20:32:31.052Z,83.51
2022-10-06T20:34:58.260Z,82.75
2022-10-06T20:37:25.448Z,84.59
2022-10-06T20:40:11.426Z,84.21
2022-10-06T20:42:41.341Z,84.79
2022-10-06T20:45:09.305Z,84.72
2022-10-06T20:47:39.267Z,86.09
2022-10-06T20:50:07.668Z,85.34
2022-10-06T20:52:34.837Z,86.46
2022-10-06T20:55:01.984Z,85.90
2022-10-06T20:57:33.695Z,86.33
2022-10-06T21:00:04.597Z,88.20
2022-10-06T21:02:32.035Z,88.37
2022-10-06T21:04:59.846Z,89.55
2022-10-06T21:07:27.206Z,89.18
2022-10-06T21:09:54.393Z,89.84
2022-10-06T21:12:21.665Z,90.64
2022-10-06T21:14:48.837Z,91.31
2022-10-06T21:17:16.020Z,91.14
2022-10-06T21:19:43.412Z,91.34
2022-10-06T21:22:10.745Z,90.74
2022-10-06T21:24:37.911Z,91.16
2022-10-06T21:27:05.096Z,90.77
2022-10-06T21:29:32.349Z,92.57
2022-10-06T21:31:59.713Z,92.37
2022-10-06T21:34:26.873Z,91.92
2022-10-06T21:36:54.001Z,91.83
2022-10-06T21:39:21.248Z,92.44
2022-10-06T21:41:48.535Z,92.18
2022-10-06T21:44:19.752Z,93.51
2022-10-06T21:46:55.980Z,92.69
2022-10-06T21:49:25.501Z,92.84
2022-10-06T21:51:56.240Z,93.47
2022-10-06T21:54:24.212Z,93.95
2022-10-06T21:56:52.031Z,93.25
2022-10-06T21:59:19.374Z,93.47
2022-10-06T22:01:50.214Z,93.92
2022-10-06T22:04:18.453Z,93.42
2022-10-06T22:06:50.041Z,93.45
2022-10-06T22:09:20.764Z,94.21
2022-10-06T22:11:49.123Z,93.60
2022-10-06T22:14:19.946Z,94.77
2022-10-06T22:16:48.035Z,94.74
2022-10-06T22:19:16.408Z,95.59
2022-10-06T22:21:48.475Z,96.14
2022-10-06T22:24:21.795Z,96.23
2022-10-06T22:26:50.166Z,96.74
2022-10-06T22:29:20.241Z,97.09
2022-10-06T22:31:48.622Z,97.53
2022-10-06T22:34:20.507Z,97.12
2022-10-06T22:36:50.534Z,97.33
2022-10-06T22:39:18.274Z,97.65
2022-10-06T22:41:45.641Z,98.85
2022-10-06T22:44:12.825Z,98.82
2022-10-06T22:46:40.075Z,98.04
2022-10-06T22:49:07.311Z,98.42
2022-10-06T22:51:35.459Z,99.13
2022-10-06T22:54:03.205Z,99.15
2022-10-06T22:56:34.442Z,100.00
2022-10-06T22:59:02.016Z,100.00
2022-10-06T23:01:30.720Z,100.00
2022-10-06T23:03:58.537Z,100.00
2022-10-06T23:06:26.743Z,100.00
2022-10-06T23:08:53.890Z,100.00
2022-10-06T23:11:22.942Z,100.00
2022-10-06T23:13:50.744Z,100.00
2022-10-06T23:16:19.963Z,100.00
2022-10-06T23:18:48.356Z,100.00
2022-10-06T23:21:23.841Z,100.00
2022-10-06T23:24:00.213Z,100.00
2022-10-06T23:26:28.238Z,100.00
2022-10-06T23:28:59.983Z,100.00
2022-10-06T23:31:29.769Z,100.00
2022-10-06T23:33:57.550Z,100.00
2022-10-06T23:36:24.799Z,100.00
2022-10-06T23:38:52.064Z,100.00
2022-10-06T23:41:20.246Z,100.00
2022-10-06T23:43:47.594Z,100.00
2022-10-06T23:46:15.406Z,100.00
2022-10-06T23:48:43.278Z,100.00
2022-10-06T23:51:15.324Z,100.00
2022-10-06T23:53:43.175Z,100.00
2022-10-06T23:56:11.332Z,100.00
2022-10-06T23:58:39.073Z,100.00
